createdAt,value
2018-03-14T00:00:26.580Z,73.30
2018-03-14T00:02:54.693Z,73.20
2018-03-14T00:05:22.815Z,73.20
2018-03-14T00:07:50.934Z,73.20
2018-03-14T00:10:19.146Z,73.20
2018-03-14T00:12:48.084Z,73.30
2018-03-14T00:15:16.319Z,73.20
2018-03-14T00:17:44.497Z,73.30
2018-03-14T00:20:12.654Z,73.30
2018-03-14T00:22:41.542Z,73.30
2018-03-14T00:25:10.423Z,73.30
2018-03-14T00:27:39.314Z,74.10
2018-03-14T00:30:07.461Z,73.30
2018-03-14T00:32:35.584Z,73.30
2018-03-14T00:35:03.713Z,73.20
2018-03-14T00:37:31.822Z,73.10
2018-03-14T00:40:00.711Z,73.20
2018-03-14T00:42:29.600Z,73.10
2018-03-14T00:44:58.502Z,73.10
2018-03-14T00:47:26.664Z,73.20
2018-03-14T00:49:55.556Z,73.20
2018-03-14T00:52:23.710Z,73.20
2018-03-14T00:54:52.594Z,73.30
2018-03-14T00:57:21.503Z,73.20
2018-03-14T00:59:50.400Z,73.10
2018-03-14T01:02:18.540Z,73.10
2018-03-14T01:04:46.680Z,73.10
2018-03-14T01:07:14.794Z,73.20
2018-03-14T01:09:42.918Z,73.10
2018-03-14T01:12:11.043Z,73.00
2018-03-14T01:14:39.238Z,72.90
2018-03-14T01:17:07.348Z,73.00
2018-03-14T01:19:35.484Z,73.00
2018-03-14T01:22:03.621Z,73.10
2018-03-14T01:24:31.818Z,73.20
2018-03-14T01:27:00.696Z,73.10
2018-03-14T01:29:29.720Z,73.10
2018-03-14T01:31:57.891Z,73.10
2018-03-14T01:34:26.006Z,73.20
2018-03-14T01:36:54.151Z,73.20
2018-03-14T01:39:22.277Z,73.10
2018-03-14T01:41:51.194Z,73.10
2018-03-14T01:44:20.066Z,73.00
2018-03-14T01:46:48.948Z,73.00
2018-03-14T01:49:17.081Z,73.00
2018-03-14T01:51:45.200Z,73.10
2018-03-14T01:54:14.080Z,72.90
2018-03-14T01:56:42.281Z,72.90
2018-03-14T01:59:10.383Z,73.20
2018-03-14T02:01:38.523Z,73.00
2018-03-14T02:04:06.703Z,72.90
2018-03-14T02:06:34.832Z,73.00
2018-03-14T02:09:02.968Z,73.00
2018-03-14T02:11:31.091Z,73.00
2018-03-14T02:13:59.972Z,73.10
2018-03-14T02:16:28.087Z,72.90
2018-03-14T02:18:56.215Z,73.00
2018-03-14T02:21:24.344Z,73.00
2018-03-14T02:23:52.456Z,73.00
2018-03-14T02:26:20.619Z,73.20
2018-03-14T02:28:48.739Z,73.30
2018-03-14T02:31:16.919Z,73.40
2018-03-14T02:33:45.451Z,73.50
2018-03-14T02:36:13.607Z,73.70
2018-03-14T02:38:41.843Z,73.70
2018-03-14T02:41:09.971Z,73.80
2018-03-14T02:43:38.183Z,74.00
2018-03-14T02:46:06.307Z,74.00
2018-03-14T02:48:34.435Z,74.00
2018-03-14T02:51:02.563Z,74.00
2018-03-14T02:53:32.205Z,74.30
2018-03-14T02:56:01.084Z,74.10
2018-03-14T02:58:29.974Z,74.40
2018-03-14T03:00:58.182Z,74.20
2018-03-14T03:03:26.302Z,74.10
2018-03-14T03:05:54.421Z,74.10
2018-03-14T03:08:22.534Z,74.10
2018-03-14T03:10:50.668Z,74.20
2018-03-14T03:13:18.797Z,74.10
2018-03-14T03:15:46.924Z,74.10
2018-03-14T03:18:15.047Z,74.20
2018-03-14T03:20:43.932Z,74.60
2018-03-14T03:23:12.852Z,74.20
2018-03-14T03:25:41.720Z,74.40
2018-03-14T03:28:10.626Z,74.90
2018-03-14T03:30:38.755Z,74.30
2018-03-14T03:33:06.905Z,74.30
2018-03-14T03:35:35.011Z,74.20
2018-03-14T03:38:03.146Z,74.20
2018-03-14T03:40:31.280Z,74.30
2018-03-14T03:43:00.183Z,74.40
2018-03-14T03:45:28.291Z,74.50
2018-03-14T03:47:56.401Z,74.40
2018-03-14T03:50:24.537Z,74.40
2018-03-14T03:52:52.665Z,74.40
2018-03-14T03:55:21.552Z,74.20
2018-03-14T03:57:50.426Z,74.30
2018-03-14T04:00:18.550Z,74.30
2018-03-14T04:02:46.670Z,74.10
2018-03-14T04:05:15.568Z,74.00
2018-03-14T04:07:44.440Z,74.00
2018-03-14T04:10:12.564Z,73.90
2018-03-14T04:12:40.728Z,73.90
2018-03-14T04:15:08.844Z,73.90
2018-03-14T04:17:37.066Z,74.00
2018-03-14T04:20:05.196Z,74.00
2018-03-14T04:22:33.332Z,74.10
2018-03-14T04:25:01.451Z,74.30
2018-03-14T04:27:29.577Z,74.30
2018-03-14T04:29:57.697Z,74.30
2018-03-14T04:32:25.832Z,74.30
2018-03-14T04:34:53.984Z,74.20
2018-03-14T04:37:22.100Z,74.30
2018-03-14T04:39:50.427Z,74.30
2018-03-14T04:42:18.591Z,74.20
2018-03-14T04:44:47.576Z,74.10
2018-03-14T04:47:16.452Z,74.00
2018-03-14T04:49:44.588Z,74.00
2018-03-14T04:52:12.707Z,74.00
2018-03-14T04:54:41.607Z,74.00
2018-03-14T04:57:10.507Z,73.80
2018-03-14T04:59:38.627Z,73.80
2018-03-14T05:02:06.750Z,73.80
2018-03-14T05:04:34.920Z,73.80
2018-03-14T05:07:03.043Z,73.80
2018-03-14T05:09:31.239Z,73.70
2018-03-14T05:11:59.363Z,73.70
2018-03-14T05:14:27.516Z,73.80
2018-03-14T05:16:55.636Z,73.60
2018-03-14T05:19:23.768Z,73.60
2018-03-14T05:21:51.935Z,73.70
2018-03-14T05:24:20.107Z,73.80
2018-03-14T05:26:48.258Z,73.80
2018-03-14T05:29:16.335Z,73.70
2018-03-14T05:31:45.239Z,73.70
2018-03-14T05:34:13.364Z,73.70
2018-03-14T05:36:41.479Z,73.80
2018-03-14T05:39:09.597Z,73.60
2018-03-14T05:41:37.829Z,73.60
2018-03-14T05:44:05.953Z,73.50
2018-03-14T05:46:34.071Z,73.50
2018-03-14T05:49:02.181Z,73.50
2018-03-14T05:51:30.343Z,73.40
2018-03-14T05:53:58.463Z,73.30
2018-03-14T05:56:26.584Z,73.40
2018-03-14T05:58:54.695Z,73.40
2018-03-14T06:01:22.825Z,73.60
2018-03-14T06:03:50.943Z,73.50
2018-03-14T06:06:19.075Z,73.70
2018-03-14T06:08:47.211Z,73.70
2018-03-14T06:11:15.359Z,74.00
2018-03-14T06:13:43.509Z,74.00
2018-03-14T06:16:11.630Z,74.20
2018-03-14T06:18:39.724Z,74.30
2018-03-14T06:21:07.881Z,74.40
2018-03-14T06:23:36.021Z,74.60
2018-03-14T06:26:04.143Z,74.70
2018-03-14T06:28:32.253Z,74.70
2018-03-14T06:31:00.389Z,74.80
2018-03-14T06:33:28.540Z,74.90
2018-03-14T06:35:56.703Z,74.90
2018-03-14T06:38:25.582Z,74.90
2018-03-14T06:40:54.488Z,74.90
2018-03-14T06:43:23.388Z,74.90
2018-03-14T06:45:52.265Z,74.80
2018-03-14T06:48:21.147Z,74.80
2018-03-14T06:50:50.077Z,75.60
2018-03-14T06:53:18.193Z,74.80
2018-03-14T06:55:46.309Z,75.00
2018-03-14T06:58:26.343Z,74.90
2018-03-14T07:01:07.282Z,75.00
2018-03-14T07:03:47.495Z,75.10
2018-03-14T07:06:16.574Z,75.00
2018-03-14T07:08:44.699Z,75.10
2018-03-14T07:11:12.821Z,75.20
2018-03-14T07:13:41.012Z,75.30
2018-03-14T07:16:09.123Z,75.30
2018-03-14T07:18:38.042Z,75.30
2018-03-14T07:21:06.962Z,75.40
2018-03-14T07:23:35.084Z,75.40
2018-03-14T07:26:03.253Z,75.40
2018-03-14T07:28:31.415Z,75.60
2018-03-14T07:30:59.484Z,75.60
2018-03-14T07:33:27.637Z,75.80
2018-03-14T07:35:55.733Z,75.70
2018-03-14T07:38:23.850Z,75.70
2018-03-14T07:40:52.854Z,76.00
2018-03-14T07:43:21.114Z,76.00
2018-03-14T07:45:49.228Z,76.20
2018-03-14T07:48:17.370Z,76.30
2018-03-14T07:50:45.490Z,76.30
2018-03-14T07:53:13.618Z,76.20
2018-03-14T07:55:41.785Z,76.20
2018-03-14T07:58:09.916Z,76.30
2018-03-14T08:00:38.035Z,76.50
2018-03-14T08:03:06.174Z,76.50
2018-03-14T08:05:34.284Z,76.50
2018-03-14T08:08:02.400Z,76.50
2018-03-14T08:10:31.348Z,76.60
2018-03-14T08:12:59.472Z,76.50
2018-03-14T08:15:27.647Z,76.60
2018-03-14T08:17:55.765Z,76.60
2018-03-14T08:20:23.882Z,76.70
2018-03-14T08:22:52.008Z,76.70
2018-03-14T08:25:20.138Z,76.80
2018-03-14T08:27:48.389Z,76.80
2018-03-14T08:30:16.503Z,76.90
2018-03-14T08:32:45.392Z,77.00
2018-03-14T08:35:14.275Z,77.20
2018-03-14T08:37:43.168Z,77.20
2018-03-14T08:40:11.355Z,77.10
2018-03-14T08:42:40.239Z,77.10
2018-03-14T08:45:09.183Z,77.30
2018-03-14T08:47:37.313Z,77.30
2018-03-14T08:50:06.187Z,77.40
2018-03-14T08:52:35.203Z,77.40
2018-03-14T08:55:03.409Z,77.30
2018-03-14T08:57:31.512Z,77.30
2018-03-14T08:59:59.619Z,77.40
2018-03-14T09:02:27.767Z,77.40
2018-03-14T09:04:56.667Z,76.80
2018-03-14T09:07:25.556Z,77.30
2018-03-14T09:09:53.663Z,77.30
2018-03-14T09:12:21.771Z,77.30
2018-03-14T09:14:49.903Z,77.30
2018-03-14T09:17:18.013Z,77.30
2018-03-14T09:19:46.135Z,77.30
2018-03-14T09:22:14.267Z,77.30
2018-03-14T09:24:42.398Z,77.40
2018-03-14T09:27:10.511Z,77.70
2018-03-14T09:29:38.632Z,78.20
2018-03-14T09:32:06.770Z,77.40
2018-03-14T09:34:35.669Z,77.60
2018-03-14T09:37:04.551Z,77.80
2018-03-14T09:39:33.425Z,77.00
2018-03-14T09:42:01.573Z,76.90
2018-03-14T09:44:29.815Z,77.00
2018-03-14T09:46:57.932Z,76.70
2018-03-14T09:49:26.054Z,76.80
2018-03-14T09:51:54.933Z,75.60
2018-03-14T09:54:23.834Z,76.20
2018-03-14T09:56:51.999Z,76.30
2018-03-14T09:59:21.648Z,76.50
2018-03-14T10:01:49.755Z,76.50
2018-03-14T10:04:18.708Z,75.10
2018-03-14T10:06:46.810Z,76.10
2018-03-14T10:09:14.923Z,75.10
2018-03-14T10:11:43.923Z,75.50
2018-03-14T10:14:12.054Z,75.50
2018-03-14T10:16:40.401Z,75.70
2018-03-14T10:19:08.714Z,74.10
2018-03-14T10:21:36.838Z,74.10
2018-03-14T10:24:04.948Z,74.40
2018-03-14T10:26:33.895Z,73.40
2018-03-14T10:29:02.168Z,73.50
2018-03-14T10:31:31.028Z,74.30
2018-03-14T10:33:59.952Z,73.90
2018-03-14T10:36:28.094Z,73.90
2018-03-14T10:38:57.011Z,73.90
2018-03-14T10:41:25.118Z,73.90
2018-03-14T10:43:53.250Z,74.30
2018-03-14T10:46:21.376Z,75.30
2018-03-14T10:48:49.498Z,74.80
2018-03-14T10:51:17.660Z,74.10
2018-03-14T10:53:45.818Z,72.90
2018-03-14T10:56:14.686Z,74.00
2018-03-14T10:58:42.808Z,74.00
2018-03-14T11:01:10.955Z,73.60
2018-03-14T11:03:44.672Z,72.20
2018-03-14T11:06:13.595Z,71.50
2018-03-14T11:08:41.714Z,71.60
2018-03-14T11:11:10.598Z,72.90
2018-03-14T11:13:39.492Z,72.20
2018-03-14T11:16:08.838Z,72.90
2018-03-14T11:18:36.952Z,72.20
2018-03-14T11:21:05.092Z,71.10
2018-03-14T11:26:03.451Z,72.00
2018-03-14T11:28:46.070Z,71.20
2018-03-14T11:33:06.483Z,71.10
2018-03-14T11:35:48.873Z,69.10
2018-03-14T11:38:31.796Z,69.30
2018-03-14T11:41:15.427Z,69.00
2018-03-14T11:43:57.280Z,69.00
2018-03-14T11:47:51.615Z,68.90
2018-03-14T11:50:20.525Z,69.00
2018-03-14T11:52:48.648Z,69.00
2018-03-14T11:55:16.784Z,68.50
2018-03-14T11:57:44.963Z,66.60
2018-03-14T12:00:13.063Z,66.10
2018-03-14T12:02:41.222Z,67.10
2018-03-14T12:05:09.367Z,68.60
2018-03-14T12:07:37.493Z,67.10
2018-03-14T12:10:05.647Z,69.10
2018-03-14T12:12:33.749Z,68.80
2018-03-14T12:15:02.638Z,67.20
2018-03-14T12:17:31.657Z,67.10
2018-03-14T12:19:59.827Z,67.20
2018-03-14T12:22:30.887Z,68.20
2018-03-14T12:24:59.080Z,66.20
2018-03-14T12:27:27.199Z,65.40
2018-03-14T12:29:56.153Z,64.90
2018-03-14T12:32:24.265Z,64.90
2018-03-14T12:34:53.165Z,65.70
2018-03-14T12:37:22.047Z,65.00
2018-03-14T12:39:51.039Z,66.70
2018-03-14T12:42:19.955Z,63.50
2018-03-14T12:44:48.091Z,63.40
2018-03-14T12:47:16.971Z,63.60
2018-03-14T12:49:45.114Z,63.60
2018-03-14T12:52:13.361Z,61.00
2018-03-14T12:54:42.378Z,64.10
2018-03-14T12:57:10.527Z,64.20
2018-03-14T12:59:38.602Z,64.50
2018-03-14T13:02:06.743Z,64.80
2018-03-14T13:04:35.650Z,64.60
2018-03-14T13:07:04.573Z,64.10
2018-03-14T13:09:32.693Z,64.20
2018-03-14T13:12:00.866Z,64.00
2018-03-14T13:14:29.027Z,64.20
2018-03-14T13:16:57.209Z,65.20
2018-03-14T13:19:25.310Z,64.40
2018-03-14T13:21:53.411Z,63.30
2018-03-14T13:24:21.580Z,62.80
2018-03-14T13:26:49.687Z,62.20
2018-03-14T13:29:17.807Z,62.40
2018-03-14T13:31:45.963Z,64.90
2018-03-14T13:34:14.967Z,62.20
2018-03-14T13:36:43.153Z,62.20
2018-03-14T13:39:11.325Z,61.10
2018-03-14T13:41:39.447Z,63.50
2018-03-14T13:44:07.671Z,60.80
2018-03-14T13:46:36.544Z,61.40
2018-03-14T13:49:05.428Z,60.00
2018-03-14T13:51:34.371Z,61.40
2018-03-14T13:54:02.505Z,61.30
2018-03-14T13:56:30.620Z,59.30
2018-03-14T13:58:58.820Z,62.40
2018-03-14T14:01:26.916Z,61.90
2018-03-14T14:03:55.805Z,58.00
2018-03-14T14:06:24.699Z,59.10
2018-03-14T14:08:52.865Z,59.10
2018-03-14T14:11:21.802Z,60.80
2018-03-14T14:13:49.969Z,60.90
2018-03-14T14:16:18.222Z,60.40
2018-03-14T14:18:47.104Z,58.40
2018-03-14T14:21:16.019Z,61.00
2018-03-14T14:23:44.141Z,61.00
2018-03-14T14:26:13.891Z,58.60
2018-03-14T14:28:41.999Z,58.70
2018-03-14T14:31:10.107Z,58.90
2018-03-14T14:33:38.334Z,59.10
2018-03-14T14:36:06.585Z,60.60
2018-03-14T14:38:35.489Z,58.60
2018-03-14T14:41:04.374Z,56.90
2018-03-14T14:43:32.630Z,56.60
2018-03-14T14:46:01.545Z,58.80
2018-03-14T14:48:29.734Z,58.90
2018-03-14T14:50:57.837Z,60.50
2018-03-14T14:53:26.710Z,57.10
2018-03-14T14:55:54.848Z,57.10
2018-03-14T14:58:22.952Z,58.10
2018-03-14T15:00:51.058Z,58.90
2018-03-14T15:03:19.184Z,60.30
2018-03-14T15:05:47.324Z,58.70
2018-03-14T15:08:16.192Z,58.10
2018-03-14T15:10:45.082Z,60.80
2018-03-14T15:13:14.005Z,61.00
2018-03-14T15:15:42.144Z,61.10
2018-03-14T15:18:10.264Z,59.40
2018-03-14T15:20:38.372Z,60.50
2018-03-14T15:23:06.544Z,59.00
2018-03-14T15:25:34.656Z,55.80
2018-03-14T15:28:03.582Z,57.90
2018-03-14T15:30:31.717Z,57.90
2018-03-14T15:33:00.584Z,59.60
2018-03-14T15:35:28.782Z,59.60
2018-03-14T15:37:57.644Z,56.00
2018-03-14T15:40:27.258Z,56.40
2018-03-14T15:42:55.383Z,56.40
2018-03-14T15:45:23.520Z,58.00
2018-03-14T15:47:58.300Z,58.10
2018-03-14T15:50:26.420Z,58.00
2018-03-14T15:52:55.286Z,58.50
2018-03-14T15:55:24.978Z,57.00
2018-03-14T15:57:53.102Z,57.00
2018-03-14T16:00:21.199Z,56.80
2018-03-14T16:02:49.337Z,56.80
2018-03-14T16:05:17.518Z,55.60
2018-03-14T16:07:46.420Z,53.00
2018-03-14T16:10:14.547Z,53.00
2018-03-14T16:12:42.688Z,55.40
2018-03-14T16:15:10.861Z,57.20
2018-03-14T16:17:39.012Z,57.90
2018-03-14T16:20:07.176Z,58.10
2018-03-14T16:22:36.071Z,57.60
2018-03-14T16:25:04.276Z,57.60
2018-03-14T16:27:32.360Z,58.00
2018-03-14T16:30:00.492Z,58.10
2018-03-14T16:32:28.675Z,58.10
2018-03-14T16:34:56.795Z,59.30
2018-03-14T16:37:24.942Z,58.10
2018-03-14T16:39:53.067Z,56.70
2018-03-14T16:42:21.959Z,56.20
2018-03-14T16:44:50.868Z,55.90
2018-03-14T16:47:18.995Z,56.00
2018-03-14T16:49:48.655Z,55.70
2018-03-14T16:52:16.772Z,55.60
2018-03-14T16:54:44.987Z,55.30
2018-03-14T16:57:14.623Z,57.00
2018-03-14T16:59:42.716Z,56.90
2018-03-14T17:02:10.851Z,55.40
2018-03-14T17:04:38.973Z,55.70
2018-03-14T17:07:07.187Z,56.60
2018-03-14T17:09:35.395Z,56.90
2018-03-14T17:12:03.497Z,56.80
2018-03-14T17:14:31.682Z,56.90
2018-03-14T17:16:59.755Z,55.90
2018-03-14T17:19:27.879Z,56.40
2018-03-14T17:21:56.059Z,55.80
2018-03-14T17:24:24.856Z,56.50
2018-03-14T17:26:52.991Z,55.70
2018-03-14T17:29:21.107Z,56.20
2018-03-14T17:31:49.235Z,56.00
2018-03-14T17:34:18.141Z,56.10
2018-03-14T17:36:46.281Z,56.00
2018-03-14T17:39:15.182Z,56.20
2018-03-14T17:41:44.067Z,56.30
2018-03-14T17:44:13.079Z,55.10
2018-03-14T17:46:41.456Z,55.10
2018-03-14T17:49:09.582Z,55.80
2018-03-14T17:51:37.693Z,56.40
2018-03-14T17:54:06.599Z,56.20
2018-03-14T17:56:34.732Z,56.30
2018-03-14T17:59:03.612Z,56.60
2018-03-14T18:01:31.736Z,56.60
2018-03-14T18:04:00.037Z,56.80
2018-03-14T18:06:28.144Z,56.30
2018-03-14T18:08:56.270Z,56.00
2018-03-14T18:11:24.390Z,56.10
2018-03-14T18:13:53.312Z,56.10
2018-03-14T18:16:21.428Z,56.10
2018-03-14T18:18:49.549Z,55.80
2018-03-14T18:21:18.633Z,56.30
2018-03-14T18:23:47.514Z,55.90
2018-03-14T18:26:15.624Z,55.90
2018-03-14T18:28:43.790Z,56.20
2018-03-14T18:31:11.924Z,56.50
2018-03-14T18:33:41.576Z,55.90
2018-03-14T18:36:09.746Z,55.90
2018-03-14T18:38:37.940Z,55.70
2018-03-14T18:41:06.080Z,56.90
2018-03-14T18:43:35.026Z,57.00
2018-03-14T18:46:03.132Z,56.90
2018-03-14T18:48:31.324Z,56.50
2018-03-14T18:50:59.496Z,56.40
2018-03-14T18:53:28.384Z,56.70
2018-03-14T18:55:57.264Z,56.40
2018-03-14T18:58:26.176Z,56.70
2018-03-14T19:00:54.371Z,56.70
2018-03-14T19:03:22.491Z,56.20
2018-03-14T19:05:51.433Z,57.40
2018-03-14T19:08:19.552Z,56.80
2018-03-14T19:10:49.179Z,56.80
2018-03-14T19:13:18.070Z,56.60
2018-03-14T19:15:46.978Z,57.10
2018-03-14T19:18:15.852Z,56.90
2018-03-14T19:20:44.751Z,57.00
2018-03-14T19:23:12.907Z,57.10
2018-03-14T19:25:41.795Z,57.00
2018-03-14T19:28:10.671Z,57.00
2018-03-14T19:30:39.659Z,56.70
2018-03-14T19:33:07.778Z,56.70
2018-03-14T19:35:35.891Z,56.90
2018-03-14T19:38:04.015Z,57.20
2018-03-14T19:40:32.119Z,57.20
2018-03-14T19:43:00.239Z,57.20
2018-03-14T19:45:29.161Z,57.20
2018-03-14T19:47:57.283Z,57.20
2018-03-14T19:50:25.395Z,56.90
2018-03-14T19:52:53.514Z,57.80
2018-03-14T19:55:21.755Z,57.60
2018-03-14T19:57:49.895Z,57.70
2018-03-14T20:00:18.779Z,58.30
2018-03-14T20:02:47.691Z,57.90
2018-03-14T20:05:16.700Z,58.00
2018-03-14T20:07:44.807Z,58.00
2018-03-14T20:10:12.943Z,58.10
2018-03-14T20:12:41.055Z,57.80
2018-03-14T20:15:09.197Z,57.70
2018-03-14T20:17:37.303Z,57.80
2018-03-14T20:20:05.408Z,58.10
2018-03-14T20:22:34.287Z,58.10
2018-03-14T20:25:02.426Z,58.10
2018-03-14T20:27:30.523Z,57.80
2018-03-14T20:29:59.427Z,57.60
2018-03-14T20:32:28.338Z,57.90
2018-03-14T20:34:56.503Z,57.90
2018-03-14T20:37:25.393Z,57.80
2018-03-14T20:39:54.261Z,57.70
2018-03-14T20:42:22.424Z,57.70
2018-03-14T20:44:50.577Z,57.80
2018-03-14T20:47:18.706Z,57.90
2018-03-14T20:49:47.585Z,58.10
2018-03-14T20:52:16.494Z,58.00
2018-03-14T20:54:44.648Z,58.00
2018-03-14T20:57:13.562Z,58.10
2018-03-14T20:59:41.674Z,58.10
2018-03-14T21:02:09.774Z,58.10
2018-03-14T21:04:37.895Z,58.00
2018-03-14T21:07:06.006Z,57.90
2018-03-14T21:09:34.183Z,58.20
2018-03-14T21:12:02.293Z,58.20
2018-03-14T21:14:30.490Z,58.20
2018-03-14T21:16:59.324Z,58.10
2018-03-14T21:19:28.200Z,58.30
2018-03-14T21:21:56.408Z,58.40
2018-03-14T21:24:25.324Z,58.30
2018-03-14T21:26:53.437Z,58.90
2018-03-14T21:29:21.577Z,58.40
2018-03-14T21:31:49.672Z,58.50
2018-03-14T21:34:17.900Z,58.40
2018-03-14T21:36:46.013Z,58.60
2018-03-14T21:39:14.193Z,58.30
2018-03-14T21:41:42.286Z,58.30
2018-03-14T21:44:10.426Z,58.40
2018-03-14T21:46:38.560Z,58.40
2018-03-14T21:49:07.436Z,58.70
2018-03-14T21:51:36.348Z,58.70
2018-03-14T21:54:04.480Z,58.70
2018-03-14T21:56:32.591Z,58.80
2018-03-14T21:59:00.691Z,58.70
2018-03-14T22:01:28.857Z,58.60
2018-03-14T22:03:58.424Z,58.80
2018-03-14T22:06:27.349Z,58.70
2018-03-14T22:08:55.451Z,58.70
2018-03-14T22:11:23.625Z,58.70
2018-03-14T22:13:52.457Z,58.70
2018-03-14T22:16:20.584Z,58.70
2018-03-14T22:18:48.688Z,58.80
2018-03-14T22:21:17.603Z,59.10
2018-03-14T22:23:45.724Z,58.90
2018-03-14T22:26:13.856Z,58.90
2018-03-14T22:28:42.012Z,58.80
2018-03-14T22:31:10.879Z,58.80
2018-03-14T22:33:40.599Z,59.00
2018-03-14T22:36:09.505Z,58.90
2018-03-14T22:38:38.400Z,59.00
2018-03-14T22:41:06.499Z,58.90
2018-03-14T22:43:34.648Z,58.90
2018-03-14T22:46:03.552Z,59.00
2018-03-14T22:48:31.653Z,59.00
2018-03-14T22:50:59.747Z,59.10
2018-03-14T22:53:27.922Z,59.00
2018-03-14T22:55:56.061Z,59.00
2018-03-14T22:58:24.179Z,59.00
2018-03-14T23:00:53.049Z,59.10
2018-03-14T23:03:21.175Z,59.00
2018-03-14T23:05:49.295Z,59.10
2018-03-14T23:08:17.399Z,59.10
2018-03-14T23:10:46.271Z,59.30
2018-03-14T23:13:15.152Z,59.30
2018-03-14T23:15:43.273Z,59.30
2018-03-14T23:18:11.419Z,59.30
2018-03-14T23:20:40.301Z,59.30
2018-03-14T23:23:09.166Z,59.50
2018-03-14T23:25:37.296Z,59.50
2018-03-14T23:28:05.449Z,59.50
2018-03-14T23:30:34.323Z,59.60
2018-03-14T23:33:03.201Z,59.50
2018-03-14T23:35:31.394Z,59.50
2018-03-14T23:38:00.265Z,59.70
2018-03-14T23:40:28.387Z,59.60
2018-03-14T23:42:56.518Z,59.60
2018-03-14T23:45:25.407Z,59.80
2018-03-14T23:47:54.279Z,59.80
2018-03-14T23:50:22.375Z,59.80
2018-03-14T23:52:51.291Z,60.00
2018-03-14T23:55:19.399Z,59.90
2018-03-14T23:57:47.523Z,59.90
